Time;durP1;ratioP1;P1;durP2;ratioP2;P2;SDS_P1;SDS_P2;PMS_P1;PMS_P2;Temp;Humidity;BMP_temperature;BMP_pressure;BME280_temperature;BME280_humidity;BME280_pressure;Samples;Min_cycle;Max_cycle;Signal;HPM_P1;HPM_P2
2021/12/28 00:01:10;;;;;;;4.10;3.90;;;9.70;99.90;;;;;;5017573;28;20438;-86
2021/12/28 00:03:40;;;;;;;5.68;4.75;;;9.10;99.90;;;;;;5029378;28;20211;-87
2021/12/28 00:06:06;;;;;;;4.28;3.95;;;9.60;99.90;;;;;;5031222;28;20207;-86
2021/12/28 00:08:33;;;;;;;4.47;4.10;;;10.40;99.90;;;;;;5010137;28;20216;-87
2021/12/28 00:10:59;;;;;;;3.72;3.65;;;9.20;99.90;;;;;;5000981;28;20439;-86
2021/12/28 00:13:37;;;;;;;3.60;3.30;;;9.20;99.90;;;;;;5004093;28;20279;-86
2021/12/28 00:18:37;;;;;;;3.45;3.22;;;9.30;99.90;;;;;;5027819;28;20219;-86
2021/12/28 00:21:04;;;;;;;4.55;4.18;;;9.20;99.90;;;;;;5013848;28;20223;-84
2021/12/28 00:23:37;;;;;;;4.72;3.35;;;9.30;99.90;;;;;;4990960;28;20311;-86
2021/12/28 00:26:07;;;;;;;4.07;3.20;;;10.10;99.90;;;;;;5020900;28;20198;-86
2021/12/28 00:28:34;;;;;;;3.92;3.30;;;9.30;99.90;;;;;;5010159;28;20184;-87
2021/12/28 00:31:02;;;;;;;3.45;3.13;;;9.30;99.90;;;;;;5003941;28;20223;-86
2021/12/28 00:33:27;;;;;;;2.80;2.70;;;10.60;99.90;;;;;;5009772;28;20192;-87
2021/12/28 00:35:53;;;;;;;5.43;2.70;;;9.30;99.90;;;;;;5023270;28;20195;-87
2021/12/28 00:38:22;;;;;;;3.63;2.50;;;10.00;99.90;;;;;;5004100;28;21110;-86
2021/12/28 00:40:51;;;;;;;2.47;2.38;;;9.30;99.90;;;;;;5029657;28;20211;-85
2021/12/28 00:43:17;;;;;;;3.13;2.80;;;9.80;99.90;;;;;;5038425;28;20215;-87
2021/12/28 00:45:44;;;;;;;3.13;2.95;;;9.10;99.90;;;;;;5046610;28;20198;-86
2021/12/28 00:48:18;;;;;;;2.72;2.55;;;8.90;99.90;;;;;;5014529;28;20270;-87
2021/12/28 00:50:52;;;;;;;3.60;2.90;;;9.00;99.90;;;;;;5017194;28;20205;-86
2021/12/28 00:53:22;;;;;;;3.47;2.35;;;9.00;99.90;;;;;;5018872;28;20185;-87
2021/12/28 00:55:49;;;;;;;3.00;2.80;;;9.10;99.90;;;;;;5014322;28;20811;-87
2021/12/28 00:58:17;;;;;;;2.63;2.53;;;9.10;99.90;;;;;;5021955;28;20219;-86
2021/12/28 01:00:44;;;;;;;2.70;2.53;;;9.80;99.90;;;;;;5012690;28;20199;-87
2021/12/28 01:03:14;;;;;;;4.10;2.90;;;9.10;99.90;;;;;;4994465;28;20216;-86
2021/12/28 01:05:39;;;;;;;3.70;3.40;;;9.90;99.90;;;;;;5021970;28;20204;-86
2021/12/28 01:08:08;;;;;;;2.83;2.77;;;8.80;99.90;;;;;;5009864;28;20224;-87
2021/12/28 01:10:58;;;;;;;3.78;3.05;;;8.90;99.90;;;;;;5029702;28;20184;-87
2021/12/28 01:13:26;;;;;;;5.90;2.72;;;8.30;99.90;;;;;;5000503;28;20195;-87
2021/12/28 01:15:52;;;;;;;7.88;3.50;;;8.50;99.90;;;;;;5004376;28;20278;-88
2021/12/28 01:18:19;;;;;;;10.43;3.20;;;10.20;99.90;;;;;;5009265;28;20233;-87
2021/12/28 01:20:45;;;;;;;6.43;2.50;;;9.10;99.90;;;;;;4997624;28;20220;-87
2021/12/28 01:23:13;;;;;;;7.25;3.30;;;8.90;99.90;;;;;;4998568;28;20211;-86
2021/12/28 01:28:15;;;;;;;3.85;2.10;;;8.60;99.90;;;;;;5024591;28;20212;-87
2021/12/28 01:30:42;;;;;;;2.70;2.00;;;8.90;99.90;;;;;;5000483;28;20194;-87
2021/12/28 01:33:09;;;;;;;7.28;3.25;;;8.90;99.90;;;;;;4974877;28;20196;-87
2021/12/28 01:35:43;;;;;;;4.38;2.55;;;8.70;99.90;;;;;;5013413;28;20196;-87
2021/12/28 01:38:09;;;;;;;7.30;2.58;;;8.70;99.90;;;;;;5019333;28;20348;-87
2021/12/28 01:41:00;;;;;;;9.00;2.90;;;8.30;99.90;;;;;;5025996;28;20682;-87
2021/12/28 01:43:27;;;;;;;3.72;2.20;;;8.80;99.90;;;;;;4999410;28;20226;-85
2021/12/28 01:46:00;;;;;;;7.50;3.07;;;9.10;99.90;;;;;;5019602;28;20188;-86
2021/12/28 01:48:49;;;;;;;3.67;2.70;;;9.30;99.90;;;;;;5014502;28;20451;-85
2021/12/28 01:51:17;;;;;;;10.00;4.05;;;8.80;99.90;;;;;;4997073;28;20204;-85
2021/12/28 01:53:46;;;;;;;4.13;3.40;;;10.60;99.90;;;;;;5005627;28;20259;-87
2021/12/28 01:56:22;;;;;;;8.27;2.50;;;9.10;99.90;;;;;;5001247;28;20287;-86
2021/12/28 01:58:48;;;;;;;7.72;3.25;;;9.60;99.90;;;;;;4994355;28;20441;-86
2021/12/28 02:01:19;;;;;;;10.75;3.65;;;9.10;99.90;;;;;;5011413;28;20192;-87
2021/12/28 02:03:50;;;;;;;3.72;2.42;;;9.30;99.90;;;;;;4984219;28;20223;-87
2021/12/28 02:06:33;;;;;;;5.80;2.50;;;9.30;99.90;;;;;;5026549;28;20195;-86
2021/12/28 02:09:07;;;;;;;7.00;2.83;;;9.00;99.90;;;;;;5015035;28;20283;-86
2021/12/28 02:11:37;;;;;;;11.35;2.67;;;9.40;99.90;;;;;;5037474;28;20263;-86
2021/12/28 02:14:06;;;;;;;6.60;2.78;;;9.70;99.90;;;;;;5028733;28;20608;-87
2021/12/28 02:16:47;;;;;;;11.77;3.58;;;9.20;99.90;;;;;;5030233;28;20187;-86
2021/12/28 02:19:14;;;;;;;10.80;3.30;;;9.20;99.90;;;;;;5030386;28;20192;-86
2021/12/28 02:21:40;;;;;;;12.35;3.28;;;9.20;99.90;;;;;;5010084;28;20427;-86
2021/12/28 02:24:08;;;;;;;5.13;2.50;;;9.30;99.90;;;;;;5027069;28;20211;-88
2021/12/28 02:26:35;;;;;;;9.27;2.65;;;9.20;99.90;;;;;;4984833;28;20224;-87
2021/12/28 02:29:02;;;;;;;9.68;3.33;;;9.30;99.90;;;;;;5025129;28;20391;-85
2021/12/28 02:31:28;;;;;;;5.97;2.30;;;9.90;99.90;;;;;;5014750;28;20211;-84
2021/12/28 02:34:03;;;;;;;10.10;2.97;;;9.50;99.90;;;;;;5040103;28;20629;-86
2021/12/28 02:36:30;;;;;;;8.70;2.80;;;9.50;99.90;;;;;;5008817;28;20264;-87
2021/12/28 02:39:05;;;;;;;11.35;2.83;;;9.50;99.90;;;;;;5015337;28;20438;-86
2021/12/28 02:41:34;;;;;;;11.60;3.03;;;9.50;99.90;;;;;;5026194;28;20176;-86
2021/12/28 02:44:07;;;;;;;8.80;4.17;;;9.80;99.90;;;;;;5002318;28;20211;-85
2021/12/28 02:46:32;;;;;;;6.13;3.42;;;9.40;99.90;;;;;;5005256;28;20512;-86
2021/12/28 02:48:58;;;;;;;8.30;3.50;;;9.50;99.90;;;;;;5012667;28;20258;-87
2021/12/28 02:51:24;;;;;;;7.33;2.13;;;9.40;99.90;;;;;;4998403;28;20843;-86
2021/12/28 02:53:50;;;;;;;14.37;3.47;;;9.50;99.90;;;;;;5020447;28;20184;-87
2021/12/28 02:56:18;;;;;;;11.77;2.60;;;10.00;99.90;;;;;;5016802;28;20525;-87
2021/12/28 02:58:49;;;;;;;10.53;3.10;;;10.90;99.90;;;;;;4989712;28;20800;-86
2021/12/28 03:01:27;;;;;;;8.38;2.63;;;9.80;99.90;;;;;;5026505;28;21009;-85
2021/12/28 03:04:03;;;;;;;10.33;5.80;;;9.80;99.90;;;;;;5009034;28;20212;-85
2021/12/28 03:06:29;;;;;;;10.73;2.47;;;9.80;99.90;;;;;;4994669;28;20446;-86
2021/12/28 03:08:57;;;;;;;11.02;4.00;;;10.90;99.90;;;;;;5024348;28;20264;-85
2021/12/28 03:11:26;;;;;;;13.10;2.83;;;9.50;99.90;;;;;;5033335;28;20210;-86
2021/12/28 03:13:59;;;;;;;17.38;3.53;;;9.50;99.90;;;;;;5028657;28;20434;-85
2021/12/28 03:16:28;;;;;;;8.20;3.20;;;9.50;99.90;;;;;;5025084;28;20192;-85
2021/12/28 03:18:55;;;;;;;12.70;3.88;;;8.80;99.90;;;;;;5021635;28;20478;-85
2021/12/28 03:21:23;;;;;;;10.98;3.78;;;11.90;99.90;;;;;;5016130;28;20194;-85
2021/12/28 03:23:50;;;;;;;10.00;2.80;;;9.60;99.90;;;;;;5004491;28;20215;-85
2021/12/28 03:26:19;;;;;;;4.57;2.77;;;9.50;99.90;;;;;;5024458;28;20231;-84
2021/12/28 03:28:46;;;;;;;10.60;3.53;;;10.00;99.90;;;;;;5018057;28;21069;-84
2021/12/28 03:31:18;;;;;;;15.83;5.13;;;9.70;99.90;;;;;;5031621;28;20467;-85
2021/12/28 03:33:48;;;;;;;17.17;4.15;;;10.30;99.90;;;;;;5027983;28;20441;-85
2021/12/28 03:36:18;;;;;;;6.30;2.88;;;10.30;99.90;;;;;;5026362;28;20676;-87
2021/12/28 03:38:46;;;;;;;10.73;3.28;;;9.60;99.90;;;;;;5010861;28;20191;-86
2021/12/28 03:41:15;;;;;;;7.80;3.17;;;10.30;99.90;;;;;;4995769;28;20200;-86
2021/12/28 03:43:54;;;;;;;6.20;2.80;;;10.70;99.90;;;;;;5017633;28;20477;-85
2021/12/28 03:46:23;;;;;;;13.10;3.25;;;11.30;99.90;;;;;;5011511;28;20518;-86
2021/12/28 03:48:58;;;;;;;8.90;2.78;;;9.20;99.90;;;;;;5019642;28;20548;-86
2021/12/28 03:51:24;;;;;;;11.55;3.00;;;10.40;99.90;;;;;;5026643;28;20208;-86
2021/12/28 03:53:50;;;;;;;5.43;2.70;;;10.60;99.90;;;;;;5016836;28;20192;-86
2021/12/28 03:56:16;;;;;;;15.83;3.47;;;9.60;99.90;;;;;;4993513;28;20493;-86
2021/12/28 03:58:44;;;;;;;14.20;3.33;;;10.30;99.90;;;;;;4997890;28;20180;-86
2021/12/28 04:01:19;;;;;;;9.93;3.60;;;9.70;99.90;;;;;;5000947;28;21363;-88
2021/12/28 04:03:45;;;;;;;6.40;3.15;;;9.90;99.90;;;;;;4986989;28;20481;-86
2021/12/28 04:06:12;;;;;;;12.35;3.10;;;9.70;99.90;;;;;;5014689;28;20197;-85
2021/12/28 04:08:40;;;;;;;5.22;2.35;;;9.60;99.90;;;;;;5027924;28;20196;-87
2021/12/28 04:11:15;;;;;;;9.13;2.40;;;9.80;99.90;;;;;;4990633;28;20670;-86
2021/12/28 04:13:47;;;;;;;6.60;2.60;;;9.70;99.90;;;;;;5023615;28;20425;-86
2021/12/28 04:16:16;;;;;;;10.85;3.25;;;9.70;99.90;;;;;;5016300;28;20688;-87
2021/12/28 04:18:44;;;;;;;9.95;2.83;;;9.60;99.90;;;;;;5023040;28;20192;-86
2021/12/28 04:21:11;;;;;;;16.88;4.65;;;9.40;99.90;;;;;;5018385;28;20205;-85
2021/12/28 04:23:41;;;;;;;15.32;3.38;;;11.00;99.90;;;;;;5014447;28;20231;-86
2021/12/28 04:26:28;;;;;;;11.98;2.75;;;9.50;99.90;;;;;;5024184;28;20716;-86
2021/12/28 04:28:55;;;;;;;8.23;3.00;;;9.70;99.90;;;;;;5019407;28;20243;-86
2021/12/28 04:31:21;;;;;;;8.27;2.75;;;9.60;99.90;;;;;;5008255;28;20819;-86
2021/12/28 04:33:47;;;;;;;14.87;3.90;;;9.60;99.90;;;;;;5028245;28;20192;-86
2021/12/28 04:36:16;;;;;;;8.90;2.63;;;9.50;99.90;;;;;;5023611;28;20218;-86
2021/12/28 04:38:45;;;;;;;8.68;2.75;;;9.40;99.90;;;;;;5010169;28;20223;-86
2021/12/28 04:41:12;;;;;;;17.38;4.00;;;9.70;99.90;;;;;;4988971;28;20204;-86
2021/12/28 04:43:38;;;;;;;10.33;3.40;;;10.20;99.90;;;;;;4991298;28;20651;-86
2021/12/28 04:46:05;;;;;;;8.67;3.20;;;9.40;99.90;;;;;;5007617;28;20528;-88
2021/12/28 04:48:32;;;;;;;9.67;3.10;;;10.90;99.90;;;;;;5018506;28;20940;-85
2021/12/28 04:50:59;;;;;;;8.77;2.57;;;9.60;99.90;;;;;;5007009;28;20453;-85
2021/12/28 04:53:26;;;;;;;6.97;2.75;;;11.20;99.90;;;;;;5026920;28;20426;-88
2021/12/28 04:55:55;;;;;;;14.07;3.00;;;9.60;99.90;;;;;;5023155;28;20255;-88
2021/12/28 04:58:30;;;;;;;9.23;3.15;;;10.00;99.90;;;;;;5026964;28;20242;-87
2021/12/28 05:00:59;;;;;;;11.75;2.40;;;9.30;99.90;;;;;;5006905;28;20191;-86
2021/12/28 05:03:25;;;;;;;8.77;2.58;;;9.60;99.90;;;;;;5023146;28;20219;-87
2021/12/28 05:05:52;;;;;;;9.37;3.00;;;11.10;99.90;;;;;;5005595;28;20603;-85
2021/12/28 05:08:23;;;;;;;15.47;2.77;;;9.50;99.90;;;;;;5021209;28;20212;-85
2021/12/28 05:10:51;;;;;;;6.00;2.90;;;9.40;99.90;;;;;;5022067;28;20470;-87
2021/12/28 05:13:18;;;;;;;5.47;3.10;;;9.50;99.90;;;;;;5008273;28;21122;-86
2021/12/28 05:15:46;;;;;;;5.33;2.73;;;9.50;99.90;;;;;;5006730;28;20183;-86
2021/12/28 05:18:14;;;;;;;9.57;2.90;;;9.50;99.90;;;;;;5021101;28;20459;-85
2021/12/28 05:20:42;;;;;;;3.90;2.60;;;9.50;99.90;;;;;;5024948;28;20515;-85
2021/12/28 05:23:10;;;;;;;8.35;2.40;;;9.60;99.90;;;;;;5007672;28;20512;-85
2021/12/28 05:25:38;;;;;;;11.75;3.03;;;9.50;99.90;;;;;;5008856;28;20188;-86
2021/12/28 05:28:06;;;;;;;3.40;2.20;;;8.80;99.90;;;;;;5019202;28;20717;-85
2021/12/28 05:30:36;;;;;;;5.63;3.65;;;9.40;99.90;;;;;;5018284;28;20253;-86
2021/12/28 05:33:04;;;;;;;7.28;2.83;;;9.40;99.90;;;;;;4999744;28;20185;-85
2021/12/28 05:35:31;;;;;;;8.70;2.58;;;9.40;99.90;;;;;;5002750;28;20893;-86
2021/12/28 05:37:56;;;;;;;6.97;3.00;;;9.50;99.90;;;;;;5012801;28;20196;-86
2021/12/28 05:40:22;;;;;;;3.13;2.10;;;;;;;;;;5008944;28;20191;-86
2021/12/28 05:42:48;;;;;;;7.67;2.93;;;9.60;99.90;;;;;;4994183;28;20661;-85
2021/12/28 05:45:15;;;;;;;5.37;2.63;;;9.30;99.90;;;;;;5016270;28;20440;-86
2021/12/28 05:47:41;;;;;;;4.13;2.67;;;9.20;99.90;;;;;;5019453;28;20569;-88
2021/12/28 05:50:13;;;;;;;3.90;2.60;;;9.50;99.90;;;;;;5018967;28;20199;-86
2021/12/28 05:52:42;;;;;;;7.15;3.20;;;9.20;99.90;;;;;;4993596;28;20563;-87
2021/12/28 05:55:10;;;;;;;8.40;2.85;;;9.60;99.90;;;;;;5018516;28;20224;-87
2021/12/28 05:57:36;;;;;;;5.50;3.00;;;9.50;99.90;;;;;;5023449;28;20195;-87
2021/12/28 06:00:28;;;;;;;6.50;2.40;;;9.60;99.90;;;;;;5020948;28;20188;-87
2021/12/28 06:02:57;;;;;;;11.10;3.60;;;9.50;99.90;;;;;;5001843;28;20207;-87
2021/12/28 06:05:25;;;;;;;6.40;3.03;;;9.60;99.90;;;;;;5000573;28;20188;-88
2021/12/28 06:07:59;;;;;;;3.97;2.60;;;9.60;99.90;;;;;;4993093;28;20593;-88
2021/12/28 06:10:32;;;;;;;5.72;2.47;;;10.00;99.90;;;;;;5018386;28;20536;-87
2021/12/28 06:13:01;;;;;;;5.95;2.80;;;9.70;99.90;;;;;;5013148;28;20207;-86
2021/12/28 06:15:28;;;;;;;5.30;2.80;;;9.80;99.90;;;;;;4988801;28;20246;-85
2021/12/28 06:17:56;;;;;;;9.10;3.75;;;9.60;99.90;;;;;;5010406;28;20241;-85
2021/12/28 06:20:26;;;;;;;3.90;3.00;;;9.90;99.90;;;;;;5000884;28;20192;-85
2021/12/28 06:22:58;;;;;;;7.32;3.65;;;9.60;99.90;;;;;;5017936;28;20342;-87
2021/12/28 06:25:30;;;;;;;6.40;4.07;;;9.90;99.90;;;;;;5012727;28;20188;-88
2021/12/28 06:27:59;;;;;;;9.20;2.97;;;9.70;99.90;;;;;;5000235;28;20534;-87
2021/12/28 06:30:26;;;;;;;4.45;3.03;;;9.30;99.90;;;;;;4998002;28;20432;-86
2021/12/28 06:32:53;;;;;;;4.93;3.53;;;9.90;99.90;;;;;;5002701;28;20212;-85
2021/12/28 06:35:20;;;;;;;2.88;2.70;;;9.40;99.90;;;;;;5017477;28;20197;-86
2021/12/28 06:37:46;;;;;;;6.55;3.20;;;10.70;99.90;;;;;;5017609;28;20303;-85
2021/12/28 06:40:13;;;;;;;4.20;3.33;;;9.40;99.90;;;;;;5021885;28;20192;-85
2021/12/28 06:42:40;;;;;;;5.00;3.00;;;11.60;99.90;;;;;;5001747;28;20438;-85
2021/12/28 06:45:11;;;;;;;3.05;2.60;;;9.70;99.90;;;;;;5013974;28;20542;-86
2021/12/28 06:47:38;;;;;;;2.57;2.37;;;9.60;99.90;;;;;;4998802;28;20231;-86
2021/12/28 06:50:06;;;;;;;3.30;3.00;;;9.60;99.90;;;;;;5016028;28;20223;-87
2021/12/28 06:52:35;;;;;;;2.95;2.80;;;9.70;99.90;;;;;;4989628;28;20452;-85
2021/12/28 06:55:01;;;;;;;3.37;2.27;;;9.90;99.90;;;;;;4989958;28;20272;-88
2021/12/28 06:57:29;;;;;;;5.33;3.00;;;9.60;99.90;;;;;;5018651;28;21043;-85
2021/12/28 07:00:00;;;;;;;2.15;2.03;;;10.60;99.90;;;;;;5018028;28;20246;-87
2021/12/28 07:02:26;;;;;;;2.77;2.57;;;8.90;99.90;;;;;;4641835;28;10000745;-86
2021/12/28 07:04:52;;;;;;;3.13;2.33;;;9.50;99.90;;;;;;4991205;28;20328;-86
2021/12/28 07:07:20;;;;;;;3.85;2.65;;;9.50;99.90;;;;;;5010989;28;20196;-86
2021/12/28 07:09:46;;;;;;;2.43;2.30;;;9.50;99.90;;;;;;5014698;28;20603;-87
2021/12/28 07:12:14;;;;;;;7.27;2.50;;;9.60;99.90;;;;;;5019701;28;20430;-87
2021/12/28 07:14:53;;;;;;;2.20;2.10;;;9.00;99.90;;;;;;5014596;28;20414;-88
2021/12/28 07:17:21;;;;;;;2.60;2.50;;;9.60;99.90;;;;;;5010928;28;21117;-89
2021/12/28 07:19:48;;;;;;;2.53;2.10;;;9.60;99.90;;;;;;5000379;28;20427;-86
2021/12/28 07:22:14;;;;;;;3.10;2.90;;;9.60;99.90;;;;;;5023613;28;20970;-86
2021/12/28 07:24:41;;;;;;;1.87;1.77;;;;;;;;;;5006416;28;20223;-84
2021/12/28 07:27:08;;;;;;;1.80;1.70;;;9.70;99.90;;;;;;5074365;22;20224;-84
2021/12/28 07:29:34;;;;;;;2.88;2.13;;;9.80;99.90;;;;;;5014072;28;20267;-86
2021/12/28 07:32:02;;;;;;;3.53;2.33;;;10.80;99.90;;;;;;5007356;28;20283;-85
2021/12/28 07:34:31;;;;;;;5.97;2.10;;;10.20;99.90;;;;;;5009190;28;20193;-85
2021/12/28 07:36:57;;;;;;;1.90;1.85;;;11.20;99.90;;;;;;4997565;28;21163;-86
2021/12/28 07:39:44;;;;;;;2.60;2.07;;;9.70;99.90;;;;;;4992638;28;20189;-86
2021/12/28 07:42:10;;;;;;;2.83;1.50;;;10.50;99.90;;;;;;4989028;28;20799;-86
2021/12/28 07:44:36;;;;;;;2.30;2.13;;;9.80;99.90;;;;;;5013202;28;20984;-87
2021/12/28 07:47:04;;;;;;;1.85;1.75;;;9.80;99.90;;;;;;5009751;28;20469;-86
2021/12/28 07:49:38;;;;;;;2.03;1.92;;;10.50;99.90;;;;;;5010923;28;20192;-85
2021/12/28 07:52:08;;;;;;;4.00;1.73;;;10.20;99.90;;;;;;4989974;28;20195;-85
2021/12/28 07:54:35;;;;;;;2.10;2.00;;;10.00;99.90;;;;;;5008593;28;20432;-84
2021/12/28 07:57:01;;;;;;;7.13;2.63;;;9.80;99.90;;;;;;5008987;28;20200;-85
2021/12/28 07:59:27;;;;;;;3.63;3.27;;;9.70;99.90;;;;;;4991657;28;20447;-85
2021/12/28 08:01:55;;;;;;;8.95;2.75;;;9.70;99.90;;;;;;4990281;28;20198;-85
2021/12/28 08:04:24;;;;;;;4.25;2.17;;;9.70;99.90;;;;;;5016442;28;20227;-85
2021/12/28 08:06:58;;;;;;;2.50;2.30;;;10.50;99.90;;;;;;5003462;28;20721;-85
2021/12/28 08:09:27;;;;;;;4.47;2.63;;;10.20;99.90;;;;;;5009427;28;20438;-85
2021/12/28 08:11:52;;;;;;;2.73;2.13;;;9.60;99.90;;;;;;4989468;28;20437;-85
2021/12/28 08:14:18;;;;;;;1.13;1.13;;;9.60;99.90;;;;;;5010345;28;20446;-85
2021/12/28 08:16:46;;;;;;;1.77;1.67;;;9.50;99.90;;;;;;5004700;28;20228;-84
2021/12/28 08:19:11;;;;;;;1.48;1.42;;;9.60;99.90;;;;;;4989452;28;20260;-85
2021/12/28 08:21:39;;;;;;;1.40;1.40;;;9.50;99.90;;;;;;5012356;28;20338;-85
2021/12/28 08:24:07;;;;;;;2.47;1.75;;;9.60;99.90;;;;;;5012556;28;20215;-87
2021/12/28 08:26:34;;;;;;;3.70;1.10;;;9.70;99.90;;;;;;4996763;28;20291;-87
2021/12/28 08:29:04;;;;;;;5.13;1.67;;;9.80;99.90;;;;;;5012394;28;20200;-87
2021/12/28 08:31:29;;;;;;;2.50;1.50;;;10.60;99.90;;;;;;4997016;28;20189;-87
2021/12/28 08:34:00;;;;;;;1.10;1.10;;;9.60;99.90;;;;;;4998578;28;20177;-88
2021/12/28 08:36:29;;;;;;;1.73;1.27;;;10.40;99.90;;;;;;4997801;28;20176;-87
2021/12/28 08:38:57;;;;;;;1.88;1.88;;;9.50;99.90;;;;;;5011180;28;20215;-86
2021/12/28 08:41:24;;;;;;;2.67;1.88;;;10.10;99.90;;;;;;5009559;28;20188;-88
2021/12/28 08:43:52;;;;;;;1.02;1.02;;;10.00;99.90;;;;;;4988973;28;20220;-87
2021/12/28 08:46:18;;;;;;;1.47;1.47;;;10.30;99.90;;;;;;4978083;28;20195;-85
2021/12/28 08:48:51;;;;;;;1.70;1.63;;;10.10;99.90;;;;;;5007537;28;20431;-87
2021/12/28 08:51:17;;;;;;;1.50;1.50;;;10.00;99.90;;;;;;5011568;28;20187;-87
2021/12/28 08:53:47;;;;;;;4.03;2.23;;;9.70;99.90;;;;;;5010956;28;20423;-86
2021/12/28 08:56:14;;;;;;;3.40;1.40;;;10.80;99.90;;;;;;4971311;28;20802;-86
2021/12/28 08:58:40;;;;;;;1.53;1.43;;;10.50;99.90;;;;;;4988246;28;20416;-84
2021/12/28 09:01:09;;;;;;;1.50;1.40;;;10.40;99.90;;;;;;4667200;28;9999723;-84
2021/12/28 09:03:38;;;;;;;1.60;1.50;;;10.30;99.90;;;;;;5010558;28;20224;-86
2021/12/28 09:06:07;;;;;;;1.20;1.20;;;10.50;99.90;;;;;;4993332;28;20573;-85
2021/12/28 09:08:34;;;;;;;1.10;1.10;;;10.40;99.90;;;;;;5006184;28;20179;-85
2021/12/28 09:11:00;;;;;;;5.57;1.33;;;10.40;99.90;;;;;;4994899;28;21253;-85
2021/12/28 09:13:25;;;;;;;1.53;1.53;;;10.30;99.90;;;;;;5004481;28;20412;-85
2021/12/28 09:15:51;;;;;;;2.37;2.27;;;10.30;99.90;;;;;;5002232;28;20438;-85
2021/12/28 09:18:17;;;;;;;2.10;1.30;;;11.00;99.90;;;;;;5004155;28;20657;-86
2021/12/28 09:20:45;;;;;;;1.57;1.57;;;10.20;99.90;;;;;;4986935;28;20440;-86
2021/12/28 09:23:12;;;;;;;1.93;1.70;;;10.70;99.90;;;;;;5002783;28;20299;-86
2021/12/28 09:25:39;;;;;;;1.73;1.20;;;10.20;99.90;;;;;;5005597;28;20439;-84
2021/12/28 09:28:06;;;;;;;1.20;1.13;;;11.10;99.90;;;;;;4988555;28;20447;-86
2021/12/28 09:30:33;;;;;;;1.45;1.10;;;10.60;99.90;;;;;;5000715;28;20320;-86
2021/12/28 09:32:59;;;;;;;1.10;1.10;;;10.80;99.90;;;;;;4971154;28;20180;-87
2021/12/28 09:35:24;;;;;;;1.47;1.37;;;11.10;99.90;;;;;;4982682;28;20511;-87
2021/12/28 09:37:53;;;;;;;1.00;1.00;;;10.70;99.90;;;;;;4989491;28;20227;-84
2021/12/28 09:40:40;;;;;;;2.50;1.00;;;10.80;99.90;;;;;;5004692;28;20185;-86
2021/12/28 09:43:08;;;;;;;0.80;0.75;;;10.80;99.90;;;;;;4989831;28;20431;-85
2021/12/28 09:45:35;;;;;;;1.20;1.10;;;10.80;99.90;;;;;;5005556;28;20700;-85
2021/12/28 09:48:01;;;;;;;1.13;0.80;;;12.30;99.90;;;;;;5005904;28;20436;-84
2021/12/28 09:50:28;;;;;;;1.00;1.00;;;10.50;99.90;;;;;;4979029;28;20439;-85
2021/12/28 09:53:00;;;;;;;1.17;1.08;;;10.80;99.90;;;;;;5003509;28;20188;-86
2021/12/28 09:55:27;;;;;;;0.87;0.87;;;10.70;99.90;;;;;;5005600;28;20684;-87
2021/12/28 09:57:55;;;;;;;1.10;1.00;;;11.60;99.90;;;;;;5006185;28;21023;-86
2021/12/28 10:00:22;;;;;;;2.37;1.47;;;10.70;99.90;;;;;;4635018;28;9999902;-86
2021/12/28 10:02:50;;;;;;;1.42;1.27;;;10.70;99.90;;;;;;4972577;28;20451;-86
2021/12/28 10:05:25;;;;;;;1.40;1.40;;;11.20;99.90;;;;;;5005183;28;20239;-84
2021/12/28 10:07:59;;;;;;;1.13;1.13;;;10.60;99.90;;;;;;4978760;28;20188;-87
2021/12/28 10:10:32;;;;;;;1.33;1.23;;;10.70;99.90;;;;;;5011273;28;20458;-87
2021/12/28 10:13:04;;;;;;;0.77;0.77;;;10.60;99.90;;;;;;4988503;28;20447;-85
2021/12/28 10:15:35;;;;;;;1.00;1.00;;;10.60;99.90;;;;;;5006434;28;20384;-86
2021/12/28 10:18:03;;;;;;;1.85;1.42;;;10.20;99.90;;;;;;4994827;28;20223;-85
2021/12/28 10:20:55;;;;;;;0.88;0.88;;;10.80;99.90;;;;;;5010150;28;20203;-87
2021/12/28 10:23:27;;;;;;;1.00;1.00;;;10.50;99.90;;;;;;4976452;28;20239;-86
2021/12/28 10:25:58;;;;;;;1.40;1.30;;;10.00;99.90;;;;;;4977233;28;20201;-86
2021/12/28 10:28:33;;;;;;;5.90;1.13;;;12.30;99.90;;;;;;4994658;28;20288;-87
2021/12/28 10:31:22;;;;;;;1.15;1.15;;;10.10;99.90;;;;;;4998492;28;20931;-86
2021/12/28 10:33:56;;;;;;;1.52;1.40;;;10.10;99.90;;;;;;5012284;28;20242;-88
2021/12/28 10:36:32;;;;;;;2.93;1.27;;;10.10;99.90;;;;;;5012190;28;20188;-87
2021/12/28 10:39:01;;;;;;;1.13;1.13;;;11.70;99.90;;;;;;5013423;28;20431;-87
2021/12/28 10:41:27;;;;;;;1.63;1.53;;;10.20;99.90;;;;;;5004882;28;20254;-86
2021/12/28 10:43:55;;;;;;;0.85;0.85;;;10.50;99.90;;;;;;4998637;28;21013;-86
2021/12/28 10:46:29;;;;;;;1.30;1.30;;;11.70;99.90;;;;;;5005385;28;20199;-88
2021/12/28 10:49:15;;;;;;;0.90;0.90;;;10.00;99.90;;;;;;5033569;28;20191;-87
2021/12/28 10:51:43;;;;;;;0.85;0.65;;;10.20;99.90;;;;;;4984088;28;20537;-90
2021/12/28 10:54:13;;;;;;;1.40;1.00;;;10.10;99.90;;;;;;4998614;28;20570;-88
2021/12/28 10:56:58;;;;;;;1.30;1.30;;;9.80;99.90;;;;;;5018464;28;20300;-88
2021/12/28 10:59:36;;;;;;;1.10;1.10;;;10.10;99.90;;;;;;4992157;28;20689;-88
2021/12/28 11:02:04;;;;;;;1.00;1.00;;;9.30;99.90;;;;;;5013106;28;20200;-88
2021/12/28 11:04:43;;;;;;;1.83;1.05;;;10.00;99.90;;;;;;5008527;28;20362;-87
2021/12/28 11:07:09;;;;;;;3.70;1.40;;;10.00;99.90;;;;;;5003856;28;20208;-89
2021/12/28 11:09:49;;;;;;;1.23;1.23;;;10.10;99.90;;;;;;5017690;28;20415;-88
2021/12/28 11:12:21;;;;;;;1.10;1.10;;;10.00;99.90;;;;;;5019846;28;20474;-87
2021/12/28 11:15:10;;;;;;;1.23;1.23;;;10.10;99.90;;;;;;5023283;28;20418;-86
2021/12/28 11:17:40;;;;;;;1.00;1.00;;;10.20;99.90;;;;;;5005497;28;20428;-86
2021/12/28 11:20:13;;;;;;;2.37;1.90;;;10.10;99.90;;;;;;5012877;28;20200;-88
2021/12/28 11:22:39;;;;;;;1.40;1.40;;;10.20;99.90;;;;;;4995645;28;20427;-88
2021/12/28 11:25:30;;;;;;;1.58;1.58;;;10.20;99.90;;;;;;5018132;28;20216;-88
2021/12/28 11:28:19;;;;;;;1.00;1.00;;;10.20;99.90;;;;;;4994111;28;20217;-85
2021/12/28 11:31:10;;;;;;;1.77;1.70;;;11.20;99.90;;;;;;5011437;28;20427;-88
2021/12/28 11:33:59;;;;;;;1.80;1.70;;;10.00;99.90;;;;;;4991995;28;20847;-88
2021/12/28 11:36:36;;;;;;;1.10;1.10;;;9.00;99.90;;;;;;4997678;28;20424;-87
2021/12/28 11:39:07;;;;;;;1.60;1.50;;;10.00;99.90;;;;;;4994522;28;20192;-87
2021/12/28 11:41:40;;;;;;;1.30;1.10;;;10.50;99.90;;;;;;5014253;28;20193;-86
2021/12/28 11:44:12;;;;;;;1.20;1.20;;;10.20;99.90;;;;;;5028284;28;20231;-89
2021/12/28 11:46:40;;;;;;;1.30;1.30;;;10.10;99.90;;;;;;5019421;28;20458;-87
2021/12/28 11:49:13;;;;;;;1.33;1.20;;;11.60;99.90;;;;;;5010973;28;20459;-88
2021/12/28 11:51:40;;;;;;;1.65;1.55;;;10.10;99.90;;;;;;4999320;28;20268;-87
2021/12/28 11:54:27;;;;;;;1.05;1.05;;;10.20;99.90;;;;;;4993614;28;20181;-85
2021/12/28 11:57:05;;;;;;;1.40;1.40;;;10.50;99.90;;;;;;4991476;28;20195;-89
2021/12/28 11:59:33;;;;;;;1.52;1.10;;;10.40;99.90;;;;;;5016029;28;20438;-87
2021/12/28 12:02:05;;;;;;;1.00;1.00;;;10.60;99.90;;;;;;5005154;28;20632;-85
2021/12/28 12:04:48;;;;;;;1.40;1.30;;;10.30;99.90;;;;;;5018567;28;20538;-88
2021/12/28 12:07:14;;;;;;;1.63;1.63;;;10.50;99.90;;;;;;4988236;28;20204;-87
2021/12/28 12:09:52;;;;;;;1.40;1.30;;;10.20;99.90;;;;;;4995994;28;20436;-88
2021/12/28 12:12:54;;;;;;;0.83;0.83;;;10.20;99.90;;;;;;5008161;28;20926;-87
2021/12/28 12:15:23;;;;;;;1.40;1.40;;;10.10;99.90;;;;;;5009372;28;20509;-86
2021/12/28 12:17:49;;;;;;;1.30;1.30;;;11.50;99.90;;;;;;4988971;28;20324;-87
2021/12/28 12:20:18;;;;;;;1.15;1.10;;;8.80;99.90;;;;;;4994850;28;20298;-88
2021/12/28 12:22:48;;;;;;;1.45;1.35;;;10.00;99.90;;;;;;4996128;28;20250;-88
2021/12/28 12:25:20;;;;;;;1.40;1.40;;;10.20;99.90;;;;;;4997200;28;20658;-84
2021/12/28 12:27:55;;;;;;;1.13;1.13;;;10.10;99.90;;;;;;5014755;28;20462;-87
2021/12/28 12:30:24;;;;;;;1.37;1.27;;;11.10;99.90;;;;;;5010895;28;20431;-89
2021/12/28 12:32:58;;;;;;;1.30;1.30;;;9.20;99.90;;;;;;5003687;28;20486;-89
2021/12/28 12:35:50;;;;;;;4.10;1.40;;;10.10;99.90;;;;;;5027239;28;20431;-89
2021/12/28 12:38:18;;;;;;;1.17;1.17;;;10.40;99.90;;;;;;5016729;28;20436;-87
2021/12/28 12:41:09;;;;;;;1.57;1.57;;;10.00;99.90;;;;;;5004698;28;20427;-89
2021/12/28 12:43:46;;;;;;;5.57;1.38;;;10.10;99.90;;;;;;5006761;28;20493;-89
2021/12/28 12:46:31;;;;;;;2.42;1.77;;;10.00;99.90;;;;;;5024077;28;20275;-87
2021/12/28 12:49:09;;;;;;;1.80;1.70;;;10.40;99.90;;;;;;5007471;28;20192;-88
2021/12/28 12:52:20;;;;;;;1.75;1.30;;;10.10;99.90;;;;;;4997223;28;20192;-87
2021/12/28 12:54:57;;;;;;;3.92;1.88;;;10.10;99.90;;;;;;4988431;28;20189;-88
2021/12/28 12:57:29;;;;;;;3.88;2.30;;;10.10;99.90;;;;;;4990496;28;20180;-90
2021/12/28 13:00:15;;;;;;;4.80;2.17;;;9.90;99.90;;;;;;5003471;28;20193;-89
2021/12/28 13:02:43;;;;;;;9.80;3.08;;;10.20;99.90;;;;;;5008744;28;20182;-88
2021/12/28 13:05:16;;;;;;;8.57;1.42;;;10.10;99.90;;;;;;5007786;28;20264;-87
2021/12/28 13:07:44;;;;;;;6.43;1.87;;;10.30;99.90;;;;;;4979330;28;20217;-87
2021/12/28 13:10:25;;;;;;;5.93;2.40;;;11.10;99.90;;;;;;5003591;28;20441;-90
2021/12/28 13:12:58;;;;;;;4.25;2.20;;;10.30;99.90;;;;;;4998819;28;20527;-88